Date,TemperatureHighF,TemperatureAvgF,TemperatureLowF,DewpointHighF,DewpointAvgF,DewpointLowF,HumidityHigh,HumidityAvg,HumidityLow,PressureMaxIn,PressureMinIn,WindSpeedMaxMPH,WindSpeedAvgMPH,GustSpeedMaxMPH,PrecipitationSumIn
2013-1-1,50.4,47.7,42.6,50.4,45.6,35.3,100,93,68,30.20,29.99,2,0,2,1.57
2013-1-2,50.4,42.7,38.3,50.4,40.7,36.0,100,93,80,30.21,29.98,9,0,9,0.05
2013-1-3,44.3,38.0,31.8,37.5,32.8,27.4,97,82,58,30.39,30.18,11,0,11,0.01
2013-1-4,50.1,35.4,26.7,28.1,23.9,13.1,94,68,24,30.46,30.35,11,0,11,0.00
2013-1-5,47.9,36.9,26.3,39.8,28.1,23.5,96,73,39,30.45,30.33,4,0,4,0.00
2013-1-6,47.3,41.1,35.8,39.8,36.9,34.7,98,85,67,30.36,30.21,15,0,15,0.00
2013-1-7,56.5,41.3,28.5,34.9,30.1,25.4,99,69,32,30.44,30.31,10,0,10,0.00
2013-1-8,52.5,45.8,38.8,39.8,34.9,29.8,73,66,55,30.45,30.35,12,1,12,0.00
2013-1-9,63.5,55.6,49.1,55.2,47.4,39.4,86,74,64,30.47,30.38,3,0,5,0.00
2013-1-10,66.3,60.8,55.9,61.8,55.7,51.1,100,84,72,30.44,30.24,16,1,16,0.02
2013-1-11,67.3,62.8,60.5,65.8,62.6,60.2,100,99,88,30.25,30.14,13,0,13,0.30
2013-1-12,74.0,63.0,57.6,66.2,60.6,57.6,100,93,61,30.18,30.07,9,0,9,0.00
2013-1-13,71.6,65.0,57.6,64.0,61.2,57.6,100,88,68,30.15,30.02,9,0,10,0.04
2013-1-14,64.2,55.0,46.2,64.2,55.0,46.2,100,100,100,30.18,30.04,6,0,6,0.87
2013-1-15,58.0,51.7,46.4,58.1,51.7,46.2,100,100,97,30.16,30.00,4,0,4,0.82
2013-1-16,63.0,56.9,52.0,63.5,56.5,0.0,99,98,97,30.04,29.94,10,0,10,0.71
2013-1-17,52.0,45.0,35.2,51.5,38.9,0.0,100,84,95,30.31,29.77,10,1,14,0.96
2013-1-18,54.5,39.0,29.8,34.9,30.9,20.5,99,77,29,30.56,29.60,6,0,6,0.00
2013-1-19,54.4,39.5,28.5,35.8,31.0,24.8,100,76,34,30.47,29.46,6,0,6,0.01
2013-1-20,59.6,42.1,29.9,39.6,34.3,28.6,96,77,44,30.24,30.12,10,1,10,0.00
2013-1-21,54.6,41.7,31.4,36.0,30.3,20.0,96,68,42,30.19,30.09,13,1,13,0.00
2013-1-22,42.2,33.4,27.9,22.6,16.7,11.4,74,51,33,30.34,30.17,14,1,14,0.00
2013-1-23,53.0,38.3,25.2,38.6,25.5,16.6,83,62,38,30.41,30.19,12,1,12,0.00
2013-1-24,49.7,44.6,32.5,40.6,28.4,11.5,78,55,24,30.36,30.14,14,2,14,0.00
2013-1-25,39.3,35.5,31.0,32.9,19.9,11.9,92,53,42,30.39,30.15,16,3,16,0.01
2013-1-26,54.7,41.9,34.9,36.6,31.8,24.2,95,71,31,30.30,30.16,10,1,10,0.02
2013-1-27,52.2,43.8,36.8,34.9,32.6,30.0,79,65,50,30.46,30.28,13,3,13,0.00
2013-1-28,54.9,46.2,42.0,45.4,38.4,31.0,93,74,63,30.42,30.27,9,2,9,0.00
2013-1-29,71.7,57.4,41.3,62.2,52.6,39.7,95,85,63,30.27,29.94,11,1,11,0.00
2013-1-30,68.6,59.9,41.3,64.6,56.9,34.7,96,90,77,29.94,29.52,23,3,23,1.83
2013-1-31,47.2,39.4,33.2,35.2,27.6,23.9,83,64,42,30.16,29.78,20,3,20,0.00
2013-2-1,42.1,35.5,25.9,31.2,18.6,7.1,77,52,27,30.38,30.13,14,2,14,0.00
2013-2-2,51.4,35.7,22.9,39.7,24.2,11.8,97,69,26,30.38,30.14,11,1,11,0.18
2013-2-3,54.9,42.7,31.6,38.8,32.1,25.6,97,70,33,30.15,30.00,21,2,21,0.00
2013-2-4,49.5,38.7,28.9,35.2,29.7,26.1,90,72,43,30.14,30.01,6,0,6,0.00
2013-2-5,57.2,45.8,32.1,48.4,40.1,30.3,95,81,62,30.06,29.97,12,0,12,0.00
2013-2-6,65.8,49.6,38.1,45.7,38.4,30.1,98,72,29,30.18,30.04,10,1,10,0.00
2013-2-7,49.7,45.4,41.6,45.0,41.0,33.1,96,86,54,30.14,29.93,17,3,17,0.18
2013-2-8,53.7,46.7,34.9,48.9,43.6,31.9,97,89,73,30.17,29.92,10,1,10,0.08
2013-2-9,61.7,42.7,29.0,36.4,31.4,25.4,96,70,27,30.31,30.15,10,1,10,0.00
2013-2-10,58.9,49.5,41.3,50.4,40.2,29.4,97,72,52,30.31,30.04,16,2,16,1.18
2013-2-11,55.7,51.4,47.5,55.0,50.7,46.9,98,97,94,30.13,30.02,6,1,10,0.52
2013-2-12,54.4,47.3,42.9,47.0,43.0,33.4,98,86,46,30.11,29.84,11,1,11,0.25
2013-2-13,52.6,44.8,35.9,48.7,41.9,33.5,98,90,77,29.97,29.74,23,2,23,0.04
2013-2-14,55.6,43.1,35.3,37.0,34.0,30.1,94,72,40,30.09,29.97,11,1,11,0.00
2013-2-15,61.4,45.3,30.2,41.0,34.3,29.2,97,70,35,30.12,29.99,12,1,12,0.00
2013-2-16,43.1,37.0,28.9,35.9,22.9,11.7,81,59,34,30.15,29.95,16,2,16,0.00
2013-2-17,45.0,32.5,21.0,23.1,16.2,10.2,86,55,26,30.32,30.15,14,1,14,0.00
2013-2-18,58.6,42.1,25.4,29.5,25.9,22.6,93,58,30,30.37,30.12,13,2,13,0.00
2013-2-19,56.7,45.5,38.6,46.6,32.0,18.1,96,64,28,30.15,30.01,19,2,19,0.36
2013-2-20,49.7,39.7,29.1,22.3,16.2,8.3,72,41,20,30.20,30.12,15,2,15,0.00
2013-2-21,64.7,48.0,29.2,42.8,24.1,16.8,89,42,20,30.19,29.96,11,2,11,0.14
2013-2-22,45.7,41.8,40.7,43.3,40.5,38.9,97,95,91,30.14,30.03,16,4,16,1.08
2013-2-23,50.9,45.5,40.6,48.5,44.2,39.8,98,95,89,30.04,29.86,10,1,10,0.77
2013-2-24,64.9,48.6,36.7,47.4,37.4,29.3,98,71,28,30.04,29.91,11,1,11,0.02
2013-2-25,49.9,44.5,37.7,38.9,33.9,29.1,92,68,48,30.03,29.85,0,0,0,0.01
2013-2-26,49.1,41.5,36.8,47.1,38.9,35.3,97,91,72,29.86,29.57,15,1,15,1.36
2013-2-27,58.9,47.8,40.6,38.0,34.3,31.8,78,61,39,29.90,29.79,20,3,20,0.00
2013-2-28,47.3,40.8,33.5,36.2,30.2,25.0,88,67,50,30.00,29.85,17,2,17,0.00
2013-3-1,41.7,38.0,34.0,31.2,28.0,24.8,81,67,58,30.02,29.97,15,2,15,0.00
2013-3-2,38.6,35.6,32.5,30.9,28.6,24.7,87,76,63,30.05,29.95,11,2,11,0.00
2013-3-3,40.4,33.0,27.3,25.9,21.8,18.9,80,64,44,30.11,30.02,19,2,19,0.00
2013-3-4,57.3,41.8,25.7,34.0,24.7,15.9,86,55,25,30.20,30.01,10,1,10,0.00
2013-3-5,65.3,52.5,39.0,56.3,43.7,28.6,95,72,59,30.07,29.68,26,3,26,0.27
2013-3-6,42.2,36.8,31.5,30.9,26.3,20.4,89,66,56,30.20,29.88,24,3,24,0.00
2013-3-7,55.9,41.2,29.5,33.3,29.5,26.3,88,66,39,30.28,30.17,13,1,13,0.00
2013-3-8,61.0,43.7,28.6,31.1,27.9,24.8,91,59,25,30.33,30.22,10,1,10,0.00
2013-3-9,60.7,49.5,34.6,38.8,30.8,26.3,80,50,31,30.33,30.20,9,2,9,0.00
2013-3-10,70.0,58.8,48.5,43.4,35.9,29.8,66,44,25,30.20,30.04,15,3,15,0.00
2013-3-11,65.8,56.3,47.6,55.8,51.1,43.4,97,84,64,30.05,29.78,14,3,14,1.41
2013-3-12,57.1,46.3,38.1,46.5,36.4,31.9,96,71,41,30.10,29.83,17,2,17,0.01
2013-3-13,54.7,43.5,32.6,34.7,28.2,21.0,94,59,29,30.28,30.10,20,2,20,0.00
2013-3-14,53.3,40.0,28.3,26.9,20.2,14.3,71,48,22,30.39,30.23,12,2,12,0.00
2013-3-15,73.9,53.2,31.3,43.2,36.0,26.6,93,57,31,30.26,29.99,19,2,19,0.00
2013-3-16,76.7,60.3,43.3,44.7,41.3,35.3,90,55,23,29.99,29.86,17,2,17,0.00
2013-3-17,71.5,59.6,46.7,54.1,48.4,42.5,91,68,46,29.98,29.89,12,1,12,0.00
2013-3-18,60.0,54.1,45.3,56.3,51.0,44.3,97,89,79,29.97,29.79,12,2,17,0.49
2013-3-19,61.7,51.0,41.8,46.4,36.4,26.9,97,63,28,30.07,29.87,14,1,14,0.00
2013-3-20,57.4,47.2,37.9,30.2,23.6,13.4,68,42,21,30.13,29.91,18,2,18,0.00
2013-3-21,47.7,38.8,29.8,29.9,18.4,6.1,78,47,23,29.99,29.91,17,2,17,0.00
2013-3-22,50.4,42.9,34.1,35.2,27.7,18.5,66,55,46,30.08,29.97,5,1,6,0.00
2013-3-23,55.9,48.3,42.6,50.8,44.5,34.2,97,87,61,30.03,29.76,12,2,13,0.80
2013-3-24,50.4,48.1,42.8,49.0,45.6,32.0,97,91,65,29.77,29.51,22,3,22,1.08
2013-3-25,42.8,38.2,34.6,32.5,25.4,22.2,70,60,49,30.09,29.69,23,4,23,0.00
2013-3-26,41.7,36.2,32.2,27.6,25.3,22.3,79,65,52,30.30,30.06,11,2,15,0.00
2013-3-27,53.2,39.2,27.0,30.0,26.0,23.0,91,63,33,30.36,30.26,16,1,16,0.00
2013-3-28,60.1,44.3,29.9,34.4,28.4,19.8,91,59,25,30.35,30.25,16,1,16,0.00
2013-3-29,68.1,51.1,33.7,38.8,33.6,28.0,93,57,28,30.34,30.16,12,1,12,0.00
2013-3-30,73.2,58.3,46.6,54.9,43.2,33.6,97,60,37,30.18,30.00,13,1,13,0.39
2013-3-31,68.8,60.4,55.0,61.6,55.3,52.3,98,84,58,30.00,29.84,13,1,13,0.09
2013-4-1,71.8,60.7,51.4,56.6,47.4,35.7,98,67,31,30.01,29.84,14,1,14,0.01
2013-4-2,65.0,52.9,43.6,43.4,35.0,27.9,81,54,27,30.16,30.01,12,1,12,0.00
2013-4-3,61.2,50.5,41.3,46.3,34.9,28.6,92,58,33,30.18,30.08,12,2,12,0.10
2013-4-4,46.7,42.5,40.0,44.2,40.5,38.1,95,93,89,30.15,29.98,19,4,19,0.30
2013-4-5,64.8,50.1,40.0,48.8,41.5,35.6,97,76,36,30.07,29.95,13,1,13,0.08
2013-4-6,71.8,55.1,38.0,45.8,39.5,35.1,96,62,28,30.19,30.06,11,1,11,0.00
2013-4-7,74.8,59.8,44.1,51.8,46.5,41.3,90,65,37,30.19,30.04,9,1,12,0.00
2013-4-8,78.7,64.4,51.2,57.4,52.5,49.3,94,68,41,30.13,30.02,10,1,10,0.00
2013-4-9,82.0,66.8,52.6,60.0,55.2,51.1,95,70,40,30.16,30.04,6,1,6,0.00
2013-4-10,83.2,69.1,54.3,61.0,56.5,52.9,96,67,41,30.09,29.89,7,1,7,0.00
2013-4-11,80.9,67.9,57.8,67.7,60.4,54.4,96,78,56,29.91,29.61,11,1,11,0.87
2013-4-12,68.0,60.7,53.8,63.2,49.8,37.9,97,71,35,29.91,29.60,15,2,15,0.11
2013-4-13,74.7,59.2,44.7,46.1,40.8,32.4,90,56,26,30.03,29.91,10,1,11,0.00
2013-4-14,60.7,54.3,46.9,55.2,48.8,42.5,94,83,57,30.04,29.86,13,1,13,0.14
2013-4-15,74.3,63.1,55.9,59.5,56.8,53.6,95,81,58,30.12,29.92,6,1,6,0.00
2013-4-16,80.7,68.7,60.0,64.0,61.1,57.8,94,78,56,30.22,30.12,7,1,7,0.00
2013-4-17,82.6,70.8,61.0,65.0,62.1,59.6,95,76,51,30.19,30.04,6,1,11,0.00
2013-4-18,80.6,70.0,59.8,61.9,59.4,56.9,96,71,48,30.06,29.87,10,1,10,0.00
2013-4-19,71.2,58.1,44.8,65.9,53.3,39.5,95,85,67,30.02,29.74,14,2,14,0.78
2013-4-20,62.2,49.5,37.1,39.8,34.8,28.5,88,60,31,30.23,30.02,13,1,13,0.00
2013-4-21,68.5,55.3,39.7,42.2,39.2,36.1,93,58,33,30.33,30.22,13,2,13,0.00
2013-4-22,68.8,58.0,48.5,48.2,43.2,37.6,74,58,44,30.30,30.13,13,2,13,0.00
2013-4-23,56.2,54.8,53.3,44.5,41.9,38.5,65,62,58,30.19,30.18,3,1,3,0.00
2013-4-24,74.6,62.2,53.8,62.2,56.2,50.1,97,82,55,30.12,30.04,9,1,10,0.10
2013-4-25,69.3,55.0,44.5,52.3,40.9,31.4,93,64,26,30.30,30.12,13,1,13,0.00
2013-4-26,74.2,57.8,39.6,51.1,41.4,35.3,92,59,27,30.37,30.25,10,1,10,0.00
2013-4-27,71.2,62.9,57.1,56.1,51.6,44.5,86,68,49,30.31,30.12,13,2,13,0.00
2013-4-28,59.9,57.3,55.8,59.3,56.4,54.7,98,97,87,30.16,29.99,15,1,15,1.97
2013-4-29,73.5,61.7,55.2,61.7,56.9,53.5,98,86,50,30.04,29.91,6,0,6,0.01
2013-4-30,77.3,65.4,56.1,63.9,59.1,55.3,98,82,51,30.07,29.93,6,1,6,0.00
2013-5-1,69.0,63.9,60.8,60.2,56.9,53.8,92,78,64,30.17,30.06,11,2,11,0.00
2013-5-2,66.5,61.4,58.7,60.2,57.0,54.0,93,86,78,30.16,30.09,14,3,14,0.00
2013-5-3,63.7,60.5,58.4,57.9,55.9,52.9,91,85,77,30.11,29.94,15,3,15,0.00
2013-5-4,60.3,53.6,49.5,54.4,51.7,48.1,98,93,77,29.94,29.83,13,3,13,2.52
2013-5-5,65.0,54.4,48.6,56.3,51.2,47.6,98,90,57,29.84,29.73,12,1,12,1.63
2013-5-6,57.7,50.5,45.7,51.9,48.8,44.8,98,94,77,29.89,29.79,6,0,6,0.25
2013-5-7,69.3,57.2,49.4,55.1,51.3,48.6,98,82,53,29.98,29.86,9,1,9,0.01
2013-5-8,76.5,62.3,48.6,59.2,54.3,47.5,97,78,48,30.05,29.95,11,1,11,0.00
2013-5-9,81.8,67.3,54.4,62.5,57.1,53.4,97,73,40,30.10,30.01,12,1,12,0.00
2013-5-10,77.3,66.8,56.3,62.7,58.8,55.1,96,77,51,30.07,29.93,9,0,9,0.00
2013-5-11,77.0,66.3,58.8,65.8,61.5,57.3,96,85,63,29.97,29.85,12,1,12,0.10
2013-5-12,68.8,59.4,50.2,60.0,46.8,34.6,97,68,30,30.09,29.91,15,1,15,0.00
2013-5-13,68.8,55.1,40.8,44.5,38.3,31.8,92,58,29,30.23,30.08,15,1,15,0.00
2013-5-14,80.0,62.0,44.1,57.0,49.2,40.5,94,67,40,30.25,30.09,9,0,9,0.00
2013-5-15,86.8,70.2,56.6,59.3,55.9,49.6,92,65,31,30.15,29.98,11,1,13,0.00
2013-5-16,82.8,69.2,59.8,63.7,59.6,56.2,92,74,42,30.06,29.96,6,0,6,0.00
2013-5-17,82.4,69.2,58.3,65.2,59.9,54.0,96,75,40,30.08,29.99,3,0,5,0.09
2013-5-18,74.3,67.4,61.3,67.8,64.9,60.2,98,92,78,30.06,30.00,5,0,5,0.21
2013-5-19,69.3,66.3,62.2,68.1,65.3,61.4,98,97,94,30.08,29.97,5,0,5,0.54
2013-5-20,83.5,71.0,61.5,71.9,66.6,60.9,99,87,59,30.09,29.97,5,0,5,0.00
2013-5-21,87.7,74.8,64.2,71.5,67.9,63.3,98,81,52,30.01,29.86,6,0,6,0.00
2013-5-22,87.5,75.1,64.8,70.4,65.2,62.1,95,74,45,29.94,29.82,10,1,10,0.00
2013-5-23,84.0,74.2,67.7,65.8,61.7,55.1,91,67,42,29.95,29.87,15,2,15,0.00
2013-5-24,74.0,66.2,56.8,57.8,51.7,44.8,82,61,40,30.19,29.94,16,2,16,0.00
2013-5-25,80.3,62.8,47.7,51.1,46.9,40.6,91,60,28,30.30,30.17,10,1,10,0.00
2013-5-26,84.2,67.1,51.2,57.7,51.2,46.3,93,62,29,30.24,30.12,10,0,10,0.00
2013-5-27,86.1,70.7,57.5,63.1,58.0,53.1,92,68,35,30.20,30.07,7,0,7,0.00
2013-5-28,85.0,73.7,63.7,65.8,59.8,53.8,87,64,38,30.16,30.08,5,1,5,0.00
2013-5-29,83.0,73.1,62.9,65.3,62.6,58.6,90,71,48,30.19,30.08,7,1,7,0.00
2013-5-30,83.2,74.3,66.8,68.1,64.7,62.2,90,73,55,30.20,30.07,5,1,5,0.00
2013-5-31,83.6,75.2,68.8,67.6,64.9,61.8,88,71,50,30.16,30.03,5,1,5,0.00
2013-6-1,83.7,75.5,67.7,70.3,66.6,64.1,90,75,57,30.06,29.95,5,1,5,0.00
2013-6-2,83.8,73.5,67.0,72.5,68.4,65.7,97,85,63,29.96,29.82,17,0,17,2.63
2013-6-3,83.2,73.0,66.4,72.1,67.6,64.2,98,85,56,29.93,29.84,10,1,10,0.01
2013-6-4,86.2,74.4,64.6,69.8,66.1,63.0,97,77,50,29.98,29.90,6,0,6,0.00
2013-6-5,82.8,73.6,68.5,73.4,69.5,67.0,97,87,68,29.99,29.84,9,1,9,1.87
2013-6-6,79.0,71.8,67.3,71.9,69.0,66.7,98,91,73,29.88,29.72,4,0,4,0.02
2013-6-7,81.8,71.2,66.9,72.0,67.7,65.7,97,89,63,29.83,29.66,9,1,11,0.08
2013-6-8,81.3,71.9,65.5,70.4,67.0,64.6,98,86,60,30.04,29.83,6,0,6,0.00
2013-6-9,80.3,71.6,67.6,72.8,69.4,66.7,98,93,73,30.06,29.97,7,0,7,0.64
2013-6-10,77.8,71.0,65.5,72.5,69.2,64.1,98,94,82,30.02,29.91,6,0,6,0.25
2013-6-11,88.7,78.0,70.5,74.8,71.8,69.4,97,83,58,30.02,29.92,12,1,12,0.00
2013-6-12,90.4,79.9,70.5,77.2,73.5,69.6,98,82,57,30.02,29.92,11,1,11,0.00
2013-6-13,91.3,78.6,66.7,75.9,71.2,64.4,97,80,49,29.94,29.69,24,2,24,1.08
2013-6-14,84.4,77.4,68.4,68.2,63.6,58.2,98,64,44,29.97,29.82,10,1,10,0.00
2013-6-15,84.7,73.2,63.6,65.5,62.9,58.2,94,72,44,30.09,29.97,6,1,6,0.00
2013-6-16,85.2,73.8,62.5,71.8,67.0,61.0,95,81,57,30.11,29.98,14,0,14,1.16
2013-6-17,81.7,71.4,67.3,75.4,69.5,65.8,98,94,74,30.08,29.90,7,0,7,1.44
2013-6-18,83.7,72.2,66.9,75.9,70.4,66.3,98,94,71,29.94,29.82,11,1,11,0.99
2013-6-19,80.5,72.3,67.2,71.7,68.8,66.6,98,90,70,30.05,29.88,4,0,4,0.00
2013-6-20,84.3,73.3,65.5,69.7,66.8,64.6,98,82,57,30.15,30.04,6,1,6,0.00
2013-6-21,84.6,74.2,65.4,68.3,65.4,62.8,95,76,51,30.20,30.10,6,1,6,0.00
2013-6-22,84.5,73.9,64.6,67.8,64.5,60.6,96,75,48,30.19,30.05,5,1,5,0.00
2013-6-23,83.7,73.8,66.8,71.9,68.5,65.3,96,84,60,30.17,30.06,6,0,6,0.00
2013-6-24,81.6,73.5,68.5,72.7,70.1,67.5,97,89,71,30.19,30.08,9,0,9,0.01
2013-6-25,85.8,74.9,67.1,74.3,69.9,66.1,97,85,63,30.13,30.00,9,0,9,0.01
2013-6-26,88.3,77.5,69.4,76.3,71.9,68.4,98,84,57,30.05,29.90,9,1,9,0.14
2013-6-27,86.5,78.6,72.3,76.7,72.8,68.7,97,83,68,29.95,29.78,12,1,12,0.20
2013-6-28,90.8,79.2,70.0,76.9,71.3,66.8,99,79,52,29.83,29.61,13,1,13,0.00
2013-6-29,87.4,77.5,71.5,71.5,68.2,62.7,95,75,45,29.68,29.61,10,1,10,0.00
2013-6-30,83.7,74.6,66.4,71.0,67.4,63.1,98,80,50,29.76,29.66,3,0,3,0.00
2013-7-1,79.9,72.1,66.7,72.4,68.6,64.7,95,89,72,29.88,29.74,7,0,7,0.09
2013-7-2,82.1,74.8,67.8,72.9,69.3,66.8,97,84,65,30.03,29.87,7,1,7,0.05
2013-7-3,73.6,69.9,66.2,71.7,68.4,65.5,98,95,85,30.14,30.01,4,0,4,2.36
2013-7-4,73.4,69.7,66.8,72.7,69.2,66.2,99,98,95,30.14,30.04,5,1,5,0.70
2013-7-5,79.7,71.0,68.3,73.7,69.8,67.7,99,96,79,30.17,30.08,7,0,7,0.39
2013-7-6,78.8,72.3,68.8,75.8,71.2,68.5,99,96,86,30.13,30.04,3,0,3,0.46
2013-7-7,77.2,72.6,70.3,73.7,71.6,70.0,99,97,88,30.15,30.07,4,0,4,0.10
2013-7-8,86.9,76.5,69.8,74.8,71.6,68.2,99,86,55,30.16,30.06,6,0,10,0.00
2013-7-9,88.2,77.9,71.1,76.8,72.8,69.9,97,85,59,30.14,30.01,7,0,7,0.00
2013-7-10,88.3,77.2,72.4,77.5,73.5,70.8,98,89,64,30.07,29.92,11,0,11,0.04
2013-7-11,79.3,73.5,69.5,73.4,71.1,68.0,97,92,79,29.95,29.84,4,0,5,0.00
2013-7-12,86.2,75.6,69.5,76.3,70.8,63.3,98,86,63,29.91,29.81,11,1,11,0.00
2013-7-13,78.0,71.7,67.3,71.9,68.5,65.8,95,90,81,30.03,29.90,5,1,5,0.00
2013-7-14,83.3,75.2,71.4,74.7,71.4,69.3,94,88,72,30.16,30.01,5,1,6,0.02
2013-7-15,85.0,76.5,71.2,73.9,70.9,69.3,94,83,66,30.25,30.14,11,1,11,0.00
2013-7-16,88.3,75.8,69.8,72.7,70.3,68.2,96,84,55,30.28,30.19,5,1,5,0.00
2013-7-17,89.8,75.7,67.5,75.7,70.2,66.6,98,85,52,30.24,30.09,10,1,10,0.69
2013-7-18,88.3,75.7,66.4,74.4,70.5,65.8,99,85,60,30.18,30.01,6,0,6,0.04
2013-7-19,89.7,78.0,70.8,75.9,72.2,69.3,98,84,57,30.09,29.94,6,1,6,0.00
2013-7-20,85.3,74.1,68.7,75.1,70.9,67.2,98,90,68,30.00,29.91,13,0,14,1.49
2013-7-21,85.2,73.5,70.2,75.1,71.4,69.6,99,94,66,30.01,29.89,6,0,6,0.25
2013-7-22,83.3,75.2,69.1,76.2,71.7,68.5,98,89,73,29.99,29.84,9,1,9,0.14
2013-7-23,80.3,74.2,70.6,72.9,70.2,68.5,95,88,74,29.95,29.81,11,1,11,0.00
2013-7-24,82.0,74.8,69.0,75.0,71.2,68.1,97,89,74,29.87,29.77,5,1,9,0.00
2013-7-25,87.2,76.0,67.7,73.0,69.3,65.4,98,81,53,29.96,29.81,9,1,9,0.00
2013-7-26,83.7,73.3,67.2,75.3,70.1,66.0,97,90,73,30.02,29.93,6,0,6,0.00
2013-7-27,79.3,73.5,69.1,72.4,69.8,66.3,98,89,68,29.97,29.87,7,0,7,0.00
2013-7-28,86.1,74.6,67.0,72.2,69.1,66.1,97,84,56,30.00,29.90,7,0,7,0.00
2013-7-29,83.8,73.3,65.7,69.1,63.2,48.8,96,74,31,30.13,29.99,6,0,9,0.00
2013-7-30,88.3,73.6,60.6,69.3,62.9,55.7,96,73,37,30.17,30.07,4,0,4,0.00
2013-7-31,77.4,72.4,69.3,73.2,70.2,66.8,97,93,77,30.11,29.94,5,0,5,0.97
2013-8-1,84.8,75.0,70.3,75.3,71.6,69.0,98,90,67,29.97,29.88,5,1,7,0.22
2013-8-2,86.8,73.6,65.9,73.1,67.8,63.2,98,84,48,30.00,29.90,6,0,7,0.00
2013-8-3,84.3,75.1,66.1,73.5,69.4,65.2,97,84,61,30.03,29.97,10,0,11,0.00
2013-8-4,86.3,77.4,71.1,74.6,71.2,67.8,96,82,57,30.00,29.92,13,1,13,0.00
2013-8-5,84.0,74.7,67.2,73.6,69.1,65.2,95,84,65,30.01,29.93,4,0,4,0.00
2013-8-6,86.2,76.9,71.2,75.4,70.7,65.3,95,82,61,29.98,29.91,5,0,5,0.00
2013-8-7,82.8,74.7,73.0,75.8,73.0,71.3,97,94,78,30.01,29.93,5,0,5,0.09
2013-8-8,79.5,74.7,72.5,76.3,73.6,71.5,98,96,88,30.02,29.96,6,0,6,0.74
2013-8-9,86.5,78.0,72.2,76.7,73.7,71.6,98,87,66,30.05,29.97,10,0,10,0.00
2013-8-10,88.8,77.8,71.3,76.5,73.2,70.4,97,87,60,30.09,30.02,7,1,9,0.02
2013-8-11,88.1,78.1,71.2,75.7,72.6,70.1,97,84,61,30.13,30.02,6,0,6,0.00
2013-8-12,88.3,75.9,71.2,76.4,72.6,70.3,97,90,61,30.08,29.96,9,0,9,0.64
2013-8-13,85.3,75.7,69.9,74.9,71.9,69.3,98,89,65,29.99,29.84,8,0,8,0.01
2013-8-14,80.2,74.5,70.8,72.6,70.7,66.8,96,88,72,29.98,29.85,6,1,6,0.00
2013-8-15,72.7,69.6,67.6,67.3,62.8,58.4,92,80,63,30.05,29.96,10,2,10,0.00
2013-8-16,67.6,65.3,62.0,63.3,61.4,59.5,96,87,77,30.09,30.00,10,2,10,0.05
2013-8-17,65.9,63.6,61.6,64.3,61.7,59.2,97,94,84,30.12,30.06,8,1,8,0.12
2013-8-18,74.8,68.9,65.1,71.7,67.6,64.3,98,96,86,30.17,30.08,4,0,4,0.11
2013-8-19,79.7,71.8,68.1,73.9,70.0,67.4,98,94,81,30.12,30.01,5,1,5,1.32
2013-8-20,79.3,73.3,69.9,73.7,71.0,68.9,97,93,83,30.14,30.05,4,1,4,0.00
2013-8-21,80.4,73.8,69.1,74.0,71.1,67.7,97,91,80,30.21,30.08,5,0,5,0.01
2013-8-22,86.7,75.1,68.9,74.1,71.2,68.0,98,89,57,30.14,30.01,7,0,7,0.06
2013-8-23,86.3,75.7,67.9,74.8,71.0,67.3,98,87,59,30.06,29.94,6,0,6,0.00
2013-8-24,81.5,74.2,68.8,72.2,68.7,66.3,97,84,68,30.21,29.98,7,1,7,0.02
2013-8-25,79.4,71.7,64.2,67.1,63.7,61.1,92,77,57,30.32,30.21,7,1,7,0.00
2013-8-26,79.8,68.9,59.7,65.1,62.0,58.7,97,81,54,30.28,30.12,4,0,4,0.00
2013-8-27,83.9,71.5,61.1,70.3,65.6,60.0,97,83,56,30.15,30.01,7,0,7,0.00
2013-8-28,85.5,74.9,66.4,73.0,69.5,65.5,98,85,60,30.04,29.94,6,0,6,0.00
2013-8-29,88.2,77.7,69.3,74.8,71.8,68.1,98,83,61,29.98,29.89,11,1,11,0.00
2013-8-30,83.0,76.5,72.1,76.3,73.5,71.1,97,91,78,29.99,29.88,5,0,5,0.00
2013-8-31,86.8,76.8,71.3,76.6,72.8,69.7,98,88,65,29.94,29.83,6,0,6,0.14
2013-9-1,82.5,73.0,69.8,76.2,71.8,68.9,98,96,78,29.90,29.83,5,0,5,0.48
2013-9-2,78.7,72.0,69.3,73.8,70.3,68.4,98,95,78,29.95,29.84,3,0,5,0.22
2013-9-3,85.0,75.5,69.7,74.7,71.1,68.8,98,87,63,29.94,29.85,9,0,9,0.00
2013-9-4,85.2,74.3,65.9,73.2,67.8,64.7,98,82,54,30.06,29.93,6,0,6,0.00
2013-9-5,84.3,74.1,66.4,71.7,67.8,62.9,98,82,52,30.10,30.02,6,0,6,0.00
2013-9-6,82.5,73.3,65.8,69.8,67.1,64.3,98,82,61,30.12,30.02,6,1,6,0.00
2013-9-7,83.0,72.6,64.7,68.7,66.2,63.1,97,82,54,30.10,29.97,5,0,5,0.00
2013-9-8,85.5,74.4,64.3,71.9,67.7,62.8,98,81,56,30.00,29.91,8,0,8,0.00
2013-9-9,84.8,75.5,67.1,72.4,68.9,65.8,98,81,58,30.08,29.95,4,0,4,0.00
2013-9-10,84.4,74.9,67.8,72.3,69.3,66.1,97,84,61,30.18,30.08,4,0,4,0.00
2013-9-11,84.8,74.5,66.4,71.5,67.2,63.3,98,80,51,30.19,30.06,4,0,4,0.00
2013-9-12,85.8,75.2,66.0,71.2,67.8,64.5,97,80,54,30.08,29.88,10,1,10,0.00
2013-9-13,83.1,73.4,62.8,69.0,64.2,56.6,95,74,50,29.90,29.78,11,1,11,0.00
2013-9-14,76.7,65.8,54.1,60.9,56.5,52.1,97,74,50,30.05,29.87,7,1,7,0.00
2013-9-15,79.3,70.4,61.7,69.8,64.9,59.0,92,83,69,30.14,30.04,4,1,4,0.00
2013-9-16,84.0,73.1,66.2,71.1,64.7,58.1,97,77,45,30.11,30.02,7,0,7,0.00
2013-9-17,75.1,69.7,64.7,64.3,62.4,60.3,92,78,65,30.20,30.07,10,2,10,0.00
2013-9-18,74.2,68.1,64.0,64.0,61.1,58.4,89,78,65,30.21,30.10,6,1,6,0.00
2013-9-19,80.0,69.4,60.5,66.7,62.4,58.5,96,80,55,30.16,30.04,6,0,6,0.00
2013-9-20,82.3,71.6,61.7,68.1,64.0,60.3,97,79,54,30.06,29.88,5,1,5,0.00
2013-9-21,72.3,67.7,63.6,69.0,65.6,62.7,97,93,81,29.90,29.70,8,1,8,1.29
2013-9-22,76.7,65.6,56.7,65.1,60.6,55.6,98,85,60,29.86,29.74,6,0,6,0.00
2013-9-23,76.8,67.1,58.4,63.3,60.2,56.9,97,80,57,29.98,29.86,9,1,9,0.00
2013-9-24,68.7,66.4,64.1,63.7,62.3,60.2,96,87,76,30.00,29.86,6,1,6,0.03
2013-9-25,65.5,63.5,62.1,64.0,62.6,61.4,98,97,92,29.87,29.81,4,1,4,1.85
2013-9-26,75.4,66.1,58.6,67.2,62.6,57.8,98,89,67,29.99,29.86,4,0,4,0.00
2013-9-27,74.0,66.7,58.6,64.5,59.9,56.4,94,80,58,30.11,29.99,6,1,6,0.00
2013-9-28,71.5,63.3,56.7,59.3,57.0,54.9,96,81,60,30.20,30.09,6,1,6,0.01
2013-9-29,71.5,61.9,55.0,59.0,55.8,53.1,94,82,58,30.14,30.01,3,1,4,0.00
2013-9-30,72.7,62.6,54.7,61.8,57.5,53.3,98,85,60,30.08,29.98,5,0,5,0.00
2013-10-1,76.0,64.9,56.1,65.6,60.0,54.7,98,85,61,30.15,30.04,6,0,6,0.00
2013-10-2,78.7,67.1,56.9,66.9,61.2,55.5,98,83,53,30.15,30.04,5,0,5,0.00
2013-10-3,79.3,68.9,62.1,66.1,62.9,60.7,98,83,54,30.12,30.04,6,0,6,0.00
2013-10-4,79.6,68.2,59.8,68.1,63.2,58.7,98,85,60,30.14,30.06,4,0,4,0.00
2013-10-5,81.8,70.1,60.7,68.2,63.7,59.3,98,82,56,30.11,29.98,5,0,5,0.00
2013-10-6,79.8,68.8,61.3,69.1,64.1,59.9,98,86,63,30.01,29.83,12,0,12,1.59
2013-10-7,69.5,62.1,55.4,64.7,57.9,52.0,98,87,67,29.94,29.79,11,1,11,1.36
2013-10-8,71.2,62.5,53.9,60.0,55.8,51.6,94,79,65,30.12,29.94,9,1,10,0.00
2013-10-9,70.4,62.0,54.2,58.7,52.9,46.6,92,73,53,30.18,30.08,7,1,7,0.00
2013-10-10,75.4,62.7,52.4,60.9,56.5,51.0,98,82,55,30.13,29.99,6,0,13,0.00
2013-10-11,75.2,62.7,52.9,59.7,55.1,50.6,98,79,44,30.05,29.96,12,1,12,0.00
2013-10-12,76.3,63.7,53.3,62.0,57.1,51.9,98,81,54,30.08,29.98,5,0,11,0.00
2013-10-13,77.5,65.5,55.3,65.3,59.7,54.0,98,83,56,30.17,30.06,5,0,5,0.00
2013-10-14,71.9,65.5,59.3,63.3,61.2,57.8,97,86,70,30.18,30.09,6,1,6,0.00
2013-10-15,67.0,63.8,62.2,60.7,59.6,58.2,92,86,78,30.13,30.02,4,1,4,0.00
2013-10-16,71.9,63.9,55.9,63.8,59.6,54.8,98,86,68,30.05,29.94,4,0,4,0.00
2013-10-17,68.0,65.0,60.1,67.1,63.6,58.4,97,95,92,29.94,29.86,4,0,7,0.35
2013-10-18,67.0,58.2,51.5,58.6,53.8,50.4,97,86,60,30.01,29.91,9,0,9,0.00
2013-10-19,62.2,57.5,53.4,58.1,55.2,51.9,97,92,83,29.97,29.91,7,0,7,0.03
2013-10-20,64.9,52.7,43.2,51.9,45.3,36.4,97,79,37,30.05,29.96,6,0,6,0.00
2013-10-21,68.3,54.7,43.6,58.3,50.3,42.3,98,86,58,30.13,30.01,6,0,6,0.00
2013-10-22,69.5,59.5,53.7,59.4,55.0,49.2,97,86,51,30.03,29.84,6,0,6,0.02
2013-10-23,58.2,51.9,41.7,51.4,44.1,36.4,96,76,48,30.08,29.83,18,1,18,0.00
2013-10-24,60.4,47.1,36.4,45.3,39.3,34.8,96,77,41,30.20,30.07,9,0,9,0.00
2013-10-25,53.4,43.8,35.1,42.7,33.5,27.4,91,69,40,30.38,30.20,11,1,11,0.00
2013-10-26,58.1,42.8,32.8,44.0,35.7,30.7,95,78,42,30.35,30.17,5,0,7,0.00
2013-10-27,65.5,52.2,40.4,56.3,47.4,38.5,96,85,62,30.17,30.10,7,0,7,0.00
2013-10-28,63.2,57.1,53.4,58.9,54.9,51.4,98,93,79,30.26,30.11,5,0,5,0.08
2013-10-29,71.0,60.0,51.8,61.3,56.1,50.7,98,88,63,30.31,30.21,4,0,4,0.00
2013-10-30,75.3,61.7,52.6,61.4,56.6,51.2,98,85,53,30.29,30.14,9,0,9,0.00
2013-10-31,72.6,64.7,56.8,64.7,59.5,54.4,95,84,73,30.16,29.84,11,1,11,0.00
2013-11-1,72.8,65.0,53.1,65.9,58.9,49.4,97,82,45,29.84,29.68,8,2,14,0.36
2013-11-2,67.5,54.4,45.8,50.9,45.3,40.1,97,74,38,30.05,29.79,12,1,12,0.00
2013-11-3,61.3,48.2,40.3,44.5,40.7,34.9,96,78,39,30.30,30.05,7,0,7,0.00
2013-11-4,60.7,49.9,41.4,43.2,40.0,38.0,94,71,44,30.44,30.30,12,2,12,0.00
2013-11-5,61.9,51.7,43.3,46.4,38.6,35.0,80,62,40,30.46,30.32,10,2,10,0.00
2013-11-6,70.0,58.5,50.6,59.1,53.7,46.2,94,85,66,30.33,30.10,9,1,9,0.00
2013-11-7,60.8,54.0,39.8,59.1,49.2,36.1,97,85,61,30.21,30.02,17,1,17,0.13
2013-11-8,59.2,44.5,34.0,36.8,33.2,25.5,93,69,29,30.34,30.20,6,0,6,0.00
2013-11-9,57.3,46.9,37.5,44.7,38.2,33.0,93,74,42,30.36,30.21,5,0,5,0.00
2013-11-10,67.5,52.8,44.7,46.0,42.6,40.5,93,71,39,30.28,30.18,11,0,11,0.00
2013-11-11,62.7,48.2,37.3,42.1,37.6,31.3,96,71,34,30.31,30.17,10,1,10,0.00
2013-11-12,59.2,43.2,31.7,45.6,34.3,19.1,97,72,47,30.45,30.14,15,1,15,0.00
2013-11-13,47.7,34.2,24.4,25.8,20.2,11.2,84,61,25,30.59,30.45,7,0,7,0.00
2013-11-14,56.6,38.2,25.1,30.6,25.2,18.3,93,66,23,30.51,30.32,7,0,7,0.00
2013-11-15,49.2,44.9,34.8,46.8,38.7,27.0,96,80,51,30.33,30.16,5,1,5,0.11
2013-11-16,61.3,54.3,47.0,57.2,52.6,46.2,98,94,86,30.23,30.13,7,1,7,0.00
2013-11-17,66.5,61.3,57.1,65.9,60.0,55.1,98,96,93,30.16,29.90,5,1,5,0.04
2013-11-18,67.5,60.4,47.8,66.8,48.8,35.0,98,69,34,30.03,29.87,10,1,10,0.00
2013-11-19,59.3,48.1,37.9,40.4,34.6,28.8,80,61,39,30.17,30.02,9,1,9,0.00
2013-11-20,55.2,48.0,40.4,35.8,32.4,28.7,69,55,45,30.33,30.17,14,3,14,0.00
2013-11-21,55.3,50.8,47.7,47.4,42.7,35.3,88,74,57,30.40,30.30,12,3,12,0.00
2013-11-22,63.1,56.0,50.1,57.9,53.3,47.2,97,91,80,30.34,30.16,4,1,5,0.07
2013-11-23,58.7,51.0,38.6,57.5,45.9,29.1,97,83,65,30.25,30.12,11,1,11,0.01
2013-11-24,45.2,35.1,28.7,29.9,21.1,13.1,82,59,29,30.48,30.25,11,1,11,0.00
2013-11-25,43.6,37.0,29.8,29.7,18.9,11.7,77,49,33,30.49,30.22,15,3,15,0.00
2013-11-26,47.6,39.4,33.5,47.0,38.1,27.6,98,95,67,30.22,29.66,13,2,13,1.34
2013-11-27,42.4,33.8,26.4,41.6,28.4,19.5,97,81,63,30.28,29.68,21,2,21,0.17
2013-11-28,46.4,31.2,21.6,28.6,22.2,18.3,92,72,36,30.50,30.28,6,1,6,0.00
2013-11-29,57.6,38.0,24.4,35.1,26.9,15.1,95,71,20,30.54,30.44,5,0,5,0.00
2013-11-30,50.9,41.4,35.0,31.2,28.8,25.7,82,62,40,30.56,30.35,14,2,14,0.00
2013-12-1,56.2,45.2,38.3,41.5,35.1,28.1,91,69,54,30.35,30.03,7,1,7,0.00
2013-12-2,50.6,47.1,42.2,50.1,45.8,39.5,98,95,90,30.03,29.82,4,0,4,0.37
2013-12-3,56.0,52.7,49.8,55.1,52.1,49.3,98,98,96,29.89,29.82,5,1,5,0.37
2013-12-4,70.2,59.8,54.2,65.6,58.1,53.7,98,94,77,30.01,29.89,10,1,10,0.02
2013-12-5,70.5,65.9,62.6,67.7,65.0,61.9,98,97,90,30.06,29.96,9,1,9,1.01
2013-12-6,74.1,67.4,54.5,67.5,65.0,52.5,98,92,76,30.04,29.94,13,2,13,0.35
2013-12-7,54.4,43.5,40.0,52.7,41.4,38.7,97,92,85,30.30,30.03,11,1,11,0.01
2013-12-8,48.0,44.2,40.6,47.5,43.4,39.7,98,97,97,30.29,30.18,14,4,14,0.24
2013-12-9,48.0,43.6,39.6,47.5,43.1,38.9,98,98,97,30.20,30.02,11,1,11,1.00
2013-12-10,48.8,42.3,29.9,48.3,39.1,28.1,98,89,63,30.34,29.95,16,1,16,0.11
2013-12-11,51.9,36.9,26.3,37.0,30.1,24.7,97,79,37,30.46,30.32,6,0,6,0.00
2013-12-12,44.0,34.5,28.4,31.6,24.7,18.8,93,70,41,30.47,30.37,9,1,9,0.00
2013-12-13,55.1,39.3,25.3,36.2,26.3,18.7,91,63,26,30.41,30.16,6,1,6,0.00
2013-12-14,48.9,46.6,43.3,47.9,42.8,30.6,98,87,55,30.18,29.82,11,1,11,0.71
2013-12-15,49.4,38.7,31.0,48.9,35.1,28.4,98,87,77,30.21,29.84,20,2,20,0.00
2013-12-16,52.4,36.9,28.5,35.2,30.4,27.1,96,80,41,30.29,30.19,10,1,10,0.00
2013-12-17,61.3,44.1,28.8,38.6,33.8,27.8,97,71,38,30.25,30.10,17,1,17,0.00
2013-12-18,50.9,39.4,30.9,33.9,25.5,17.1,90,61,28,30.34,30.18,12,1,12,0.00
2013-12-19,61.7,41.5,27.8,36.4,30.0,23.0,95,70,25,30.34,30.20,6,0,6,0.00
2013-12-20,60.0,47.6,35.2,50.9,42.3,32.0,95,83,68,30.23,30.11,4,0,4,0.00
2013-12-21,69.0,60.7,48.4,65.2,58.4,47.5,98,92,85,30.11,29.91,15,1,15,0.00
2013-12-22,69.1,60.3,55.5,65.1,58.9,54.8,98,95,87,30.05,29.85,12,1,12,2.73
2013-12-23,55.5,47.2,35.2,55.0,44.6,30.4,98,91,82,30.25,30.02,11,2,13,0.00
2013-12-24,38.2,32.7,26.5,30.8,25.5,21.1,89,75,54,30.42,30.25,14,2,14,0.00
2013-12-25,43.2,32.6,24.3,28.1,23.1,18.2,93,70,44,30.50,30.35,12,1,12,0.00
2013-12-26,52.4,38.2,29.0,31.4,27.9,23.4,90,69,39,30.40,30.29,9,0,9,0.00
2013-12-27,50.9,36.0,27.0,32.9,29.1,25.7,96,79,41,30.47,30.34,9,0,9,0.00
2013-12-28,45.4,37.8,30.0,39.2,34.3,28.6,96,88,59,30.42,30.00,16,2,16,0.82
2013-12-29,47.4,43.4,39.3,44.9,41.8,38.1,98,94,89,30.06,29.87,12,2,12,0.13
2013-12-30,47.4,41.8,36.4,43.1,39.7,35.5,98,92,83,30.22,30.04,10,0,10,0.00
2013-12-31,44.2,38.4,31.5,36.6,31.4,23.8,92,77,47,30.39,30.21,11,1,11,0.00
2014-1-1,47.9,40.1,31.5,39.2,32.9,28.9,94,77,56,30.38,30.14,5,1,5,0.00
2014-1-2,49.9,41.5,25.7,49.4,38.2,16.7,98,88,68,30.14,29.77,20,2,20,0.17